Time,TemperatureF,DewpointF,PressureIn,WindDirection,WindDirectionDegrees,WindSpeedMPH,WindSpeedGustMPH,Humidity,HourlyPrecipIn,Conditions,Clouds,dailyrainin,SoftwareType,DateUTC
2013-10-15 00:00:00,52.6,51.5,30.19,NE,44,0.0,0.0,96,0.00,,,0.00,VWS V14.01,2013-10-15 04:00:00,
2013-10-15 00:01:00,51.9,50.8,30.18,NE,44,0.0,0.0,96,0.00,,,0.00,VWS V14.01,2013-10-15 04:01:00,
2013-10-15 00:06:00,51.9,50.8,30.18,NE,44,0.0,0.0,96,0.00,,,0.00,VWS V14.01,2013-10-15 04:06:00,
2013-10-15 00:11:00,51.7,50.6,30.18,NE,44,0.0,0.0,96,0.00,,,0.00,VWS V14.01,2013-10-15 04:11:00,
2013-10-15 00:16:00,51.9,50.8,30.18,NE,44,0.0,0.0,96,0.00,,,0.00,VWS V14.01,2013-10-15 04:16:00,
2013-10-15 00:21:00,51.9,50.8,30.18,NE,44,0.0,0.0,96,0.00,,,0.00,VWS V14.01,2013-10-15 04:21:00,
2013-10-15 00:26:00,51.9,50.8,30.18,NE,44,0.0,0.0,96,0.00,,,0.00,VWS V14.01,2013-10-15 04:26:00,
2013-10-15 00:30:00,51.9,50.8,30.19,NE,44,0.0,0.0,96,0.00,,,0.00,VWS V14.01,2013-10-15 04:30:00,
2013-10-15 00:31:00,51.7,50.6,30.18,NE,44,0.0,0.0,96,0.00,,,0.00,VWS V14.01,2013-10-15 04:31:00,
2013-10-15 00:36:00,51.6,50.5,30.18,NE,44,0.0,0.0,96,0.00,,,0.00,VWS V14.01,2013-10-15 04:36:00,
2013-10-15 00:41:00,51.4,50.3,30.17,NE,44,0.0,0.0,96,0.00,,,0.00,VWS V14.01,2013-10-15 04:41:00,
2013-10-15 00:46:00,51.4,50.6,30.18,NE,44,0.0,0.0,97,0.00,,,0.00,VWS V14.01,2013-10-15 04:46:00,
2013-10-15 00:51:00,51.4,50.6,30.18,NE,44,0.0,0.0,97,0.00,,,0.00,VWS V14.01,2013-10-15 04:51:00,
2013-10-15 00:56:00,51.3,50.2,30.18,NE,44,0.0,0.0,96,0.00,,,0.00,VWS V14.01,2013-10-15 04:56:00,
2013-10-15 01:00:00,51.9,50.8,30.18,NE,44,0.0,0.0,96,0.00,,,0.00,VWS V14.01,2013-10-15 05:00:00,
2013-10-15 01:01:00,51.3,50.5,30.17,NE,44,0.0,0.0,97,0.00,,,0.00,VWS V14.01,2013-10-15 05:01:00,
2013-10-15 01:06:00,51.3,50.5,30.17,NE,44,0.0,0.0,97,0.00,,,0.00,VWS V14.01,2013-10-15 05:06:00,
2013-10-15 01:11:00,51.1,50.3,30.17,NE,44,0.0,0.0,97,0.00,,,0.00,VWS V14.01,2013-10-15 05:11:00,
2013-10-15 01:16:00,51.0,50.2,30.17,NE,44,0.0,0.0,97,0.00,,,0.00,VWS V14.01,2013-10-15 05:16:00,
2013-10-15 01:21:00,51.0,50.2,30.17,NE,44,0.0,0.0,97,0.00,,,0.00,VWS V14.01,2013-10-15 05:21:00,
2013-10-15 01:26:00,50.8,50.0,30.16,NE,44,0.0,0.0,97,0.00,,,0.00,VWS V14.01,2013-10-15 05:26:00,
2013-10-15 01:30:00,51.7,50.6,30.18,NE,44,0.0,0.0,96,0.00,,,0.00,VWS V14.01,2013-10-15 05:30:00,
2013-10-15 01:31:00,50.4,49.6,30.16,NE,44,0.0,0.0,97,0.00,,,0.00,VWS V14.01,2013-10-15 05:31:00,
2013-10-15 01:36:00,50.5,49.7,30.16,NE,44,0.0,0.0,97,0.00,,,0.00,VWS V14.01,2013-10-15 05:36:00,
2013-10-15 01:41:00,50.4,49.6,30.16,NE,44,0.0,0.0,97,0.00,,,0.00,VWS V14.01,2013-10-15 05:41:00,
2013-10-15 01:46:00,50.4,49.6,30.16,NE,44,0.0,0.0,97,0.00,,,0.00,VWS V14.01,2013-10-15 05:46:00,
2013-10-15 01:51:00,50.5,49.7,30.16,NE,44,0.0,0.0,97,0.00,,,0.00,VWS V14.01,2013-10-15 05:51:00,
2013-10-15 01:56:00,50.4,49.6,30.16,NE,44,0.0,0.0,97,0.00,,,0.00,VWS V14.01,2013-10-15 05:56:00,
2013-10-15 02:00:00,51.3,50.5,30.17,NE,44,0.0,0.0,97,0.00,,,0.00,VWS V14.01,2013-10-15 06:00:00,
2013-10-15 02:01:00,50.1,49.3,30.16,NE,44,0.0,0.0,97,0.00,,,0.00,VWS V14.01,2013-10-15 06:01:00,
2013-10-15 02:06:00,49.9,49.1,30.16,NE,44,0.0,0.0,97,0.00,,,0.00,VWS V14.01,2013-10-15 06:06:00,
2013-10-15 02:11:00,49.8,49.0,30.16,NE,44,0.0,0.0,97,0.00,,,0.00,VWS V14.01,2013-10-15 06:11:00,
2013-10-15 02:16:00,49.6,48.8,30.15,NE,44,0.0,0.0,97,0.00,,,0.00,VWS V14.01,2013-10-15 06:16:00,
2013-10-15 02:21:00,49.8,49.0,30.15,NE,44,0.0,0.0,97,0.00,,,0.00,VWS V14.01,2013-10-15 06:21:00,
2013-10-15 02:26:00,49.9,49.1,30.15,NE,44,0.0,0.0,97,0.00,,,0.00,VWS V14.01,2013-10-15 06:26:00,
2013-10-15 02:30:00,50.5,49.7,30.17,NE,44,0.0,0.0,97,0.00,,,0.00,VWS V14.01,2013-10-15 06:30:00,
2013-10-15 02:31:00,49.9,49.1,30.15,NE,44,0.0,0.0,97,0.00,,,0.00,VWS V14.01,2013-10-15 06:31:00,
2013-10-15 02:36:00,49.8,49.0,30.15,NE,44,0.0,0.0,97,0.00,,,0.00,VWS V14.01,2013-10-15 06:36:00,
2013-10-15 02:41:00,49.6,48.8,30.15,NE,44,0.0,0.0,97,0.00,,,0.00,VWS V14.01,2013-10-15 06:41:00,
2013-10-15 02:46:00,49.6,48.8,30.15,NE,44,0.0,0.0,97,0.00,,,0.00,VWS V14.01,2013-10-15 06:46:00,
2013-10-15 02:51:00,49.5,48.7,30.14,NE,44,0.0,0.0,97,0.00,,,0.00,VWS V14.01,2013-10-15 06:51:00,
2013-10-15 02:56:00,49.4,48.6,30.14,NE,44,0.0,0.0,97,0.00,,,0.00,VWS V14.01,2013-10-15 06:56:00,
2013-10-15 03:00:00,50.2,49.4,30.16,NE,44,0.0,0.0,97,0.00,,,0.00,VWS V14.01,2013-10-15 07:00:00,
2013-10-15 03:01:00,49.2,48.4,30.15,NE,44,0.0,0.0,97,0.00,,,0.00,VWS V14.01,2013-10-15 07:01:00,
2013-10-15 03:06:00,49.1,48.3,30.14,NE,44,0.0,0.0,97,0.00,,,0.00,VWS V14.01,2013-10-15 07:06:00,
2013-10-15 03:11:00,48.9,48.1,30.14,NE,44,0.0,0.0,97,0.00,,,0.00,VWS V14.01,2013-10-15 07:11:00,
2013-10-15 03:16:00,48.8,48.0,30.14,NE,44,0.0,0.0,97,0.00,,,0.00,VWS V14.01,2013-10-15 07:16:00,
2013-10-15 03:21:00,48.6,47.8,30.14,NE,44,0.0,0.0,97,0.00,,,0.00,VWS V14.01,2013-10-15 07:21:00,
2013-10-15 03:26:00,48.8,48.0,30.14,NE,44,0.0,0.0,97,0.00,,,0.00,VWS V14.01,2013-10-15 07:26:00,
2013-10-15 03:30:00,49.9,49.1,30.15,NE,44,0.0,0.0,97,0.00,,,0.00,VWS V14.01,2013-10-15 07:30:00,
2013-10-15 03:31:00,48.8,48.0,30.14,NE,44,0.0,0.0,97,0.00,,,0.00,VWS V14.01,2013-10-15 07:31:00,
2013-10-15 03:36:00,48.6,47.8,30.14,NE,44,0.0,0.0,97,0.00,,,0.00,VWS V14.01,2013-10-15 07:36:00,
2013-10-15 03:41:00,48.5,47.7,30.14,NE,44,0.0,0.0,97,0.00,,,0.00,VWS V14.01,2013-10-15 07:41:00,
2013-10-15 03:46:00,48.6,47.8,30.14,NE,44,0.0,0.0,97,0.00,,,0.00,VWS V14.01,2013-10-15 07:46:00,
2013-10-15 03:51:00,48.9,48.4,30.14,NE,44,0.0,0.0,98,0.00,,,0.00,VWS V14.01,2013-10-15 07:51:00,
2013-10-15 03:56:00,49.4,48.9,30.14,NE,44,0.0,0.0,98,0.00,,,0.00,VWS V14.01,2013-10-15 07:56:00,
2013-10-15 04:00:00,49.2,48.4,30.14,NE,44,0.0,0.0,97,0.00,,,0.00,VWS V14.01,2013-10-15 08:00:00,
2013-10-15 04:01:00,49.5,49.0,30.14,NE,44,0.0,0.0,98,0.00,,,0.00,VWS V14.01,2013-10-15 08:01:00,
2013-10-15 04:06:00,49.5,49.0,30.14,NE,44,0.0,0.0,98,0.00,,,0.00,VWS V14.01,2013-10-15 08:06:00,
2013-10-15 04:11:00,49.4,48.6,30.14,NE,44,0.0,0.0,97,0.00,,,0.00,VWS V14.01,2013-10-15 08:11:00,
2013-10-15 04:16:00,49.5,49.0,30.14,NE,44,0.0,0.0,98,0.00,,,0.00,VWS V14.01,2013-10-15 08:16:00,
2013-10-15 04:21:00,49.8,49.3,30.14,NE,44,2.0,2.0,98,0.00,,,0.00,VWS V14.01,2013-10-15 08:21:00,
2013-10-15 04:26:00,50.1,49.6,30.14,NE,44,0.0,3.0,98,0.00,,,0.00,VWS V14.01,2013-10-15 08:26:00,
2013-10-15 04:30:00,48.8,48.0,30.14,NE,44,0.0,0.0,97,0.00,,,0.00,VWS V14.01,2013-10-15 08:30:00,
2013-10-15 04:31:00,50.2,49.7,30.14,NE,44,0.0,0.0,98,0.00,,,0.00,VWS V14.01,2013-10-15 08:31:00,
2013-10-15 04:36:00,50.4,49.9,30.14,NE,44,2.0,2.0,98,0.00,,,0.00,VWS V14.01,2013-10-15 08:36:00,
2013-10-15 04:41:00,50.4,49.9,30.15,NE,44,0.0,3.0,98,0.00,,,0.00,VWS V14.01,2013-10-15 08:41:00,
2013-10-15 04:46:00,50.4,49.9,30.15,NE,44,0.0,3.0,98,0.00,,,0.00,VWS V14.01,2013-10-15 08:46:00,
2013-10-15 04:50:00,50.2,49.4,30.15,NE,44,0.0,3.0,97,0.00,,,0.00,VWS V14.01,2013-10-15 08:50:00,
2013-10-15 04:55:00,50.1,49.3,30.15,NE,44,0.0,3.0,97,0.00,,,0.00,VWS V14.01,2013-10-15 08:55:00,
2013-10-15 05:00:00,49.9,49.1,30.15,NE,44,0.0,3.0,97,0.00,,,0.00,VWS V14.01,2013-10-15 09:00:00,
2013-10-15 05:05:00,49.9,49.1,30.15,NE,44,0.0,0.0,97,0.00,,,0.00,VWS V14.01,2013-10-15 09:05:00,
2013-10-15 05:10:00,49.9,49.4,30.15,NE,44,0.0,2.0,98,0.00,,,0.00,VWS V14.01,2013-10-15 09:10:00,
2013-10-15 05:15:00,49.9,49.4,30.15,NE,44,0.0,2.0,98,0.00,,,0.00,VWS V14.01,2013-10-15 09:15:00,
2013-10-15 05:20:00,49.9,49.1,30.15,NE,44,0.0,2.0,97,0.00,,,0.00,VWS V14.01,2013-10-15 09:20:00,
2013-10-15 05:25:00,49.8,49.0,30.15,NE,44,0.0,2.0,97,0.00,,,0.00,VWS V14.01,2013-10-15 09:25:00,
2013-10-15 05:30:00,49.8,49.0,30.15,NE,44,0.0,2.0,97,0.00,,,0.00,VWS V14.01,2013-10-15 09:30:00,
2013-10-15 05:35:00,49.6,48.8,30.15,NE,44,0.0,0.0,97,0.00,,,0.00,VWS V14.01,2013-10-15 09:35:00,
2013-10-15 05:40:00,49.6,49.1,30.14,NE,44,0.0,2.0,98,0.00,,,0.00,VWS V14.01,2013-10-15 09:40:00,
2013-10-15 05:45:00,49.8,49.3,30.15,NE,44,1.0,2.0,98,0.00,,,0.00,VWS V14.01,2013-10-15 09:45:00,
2013-10-15 05:50:00,49.8,49.3,30.14,NE,44,0.0,2.0,98,0.00,,,0.00,VWS V14.01,2013-10-15 09:50:00,
2013-10-15 05:55:00,49.8,49.3,30.14,NE,44,0.0,2.0,98,0.00,,,0.00,VWS V14.01,2013-10-15 09:55:00,
2013-10-15 06:00:00,49.5,48.7,30.14,NE,44,0.0,2.0,97,0.00,,,0.00,VWS V14.01,2013-10-15 10:00:00,
2013-10-15 06:05:00,49.4,48.6,30.14,NE,44,0.0,0.0,97,0.00,,,0.00,VWS V14.01,2013-10-15 10:05:00,
2013-10-15 06:10:00,49.1,48.3,30.14,NE,44,0.0,0.0,97,0.00,,,0.00,VWS V14.01,2013-10-15 10:10:00,
2013-10-15 06:15:00,49.1,48.6,30.14,NE,44,0.0,1.0,98,0.00,,,0.00,VWS V14.01,2013-10-15 10:15:00,
2013-10-15 06:20:00,49.4,48.9,30.14,NE,44,0.0,2.0,98,0.00,,,0.00,VWS V14.01,2013-10-15 10:20:00,
2013-10-15 06:25:00,49.4,48.9,30.14,NE,44,1.0,3.0,98,0.00,,,0.00,VWS V14.01,2013-10-15 10:25:00,
2013-10-15 06:30:00,49.4,48.9,30.14,NE,44,0.0,3.0,98,0.00,,,0.00,VWS V14.01,2013-10-15 10:30:00,
2013-10-15 06:35:00,49.2,48.7,30.14,NE,44,0.0,0.0,98,0.00,,,0.00,VWS V14.01,2013-10-15 10:35:00,
2013-10-15 06:40:00,49.1,48.3,30.14,NE,44,0.0,0.0,97,0.00,,,0.00,VWS V14.01,2013-10-15 10:40:00,
2013-10-15 06:45:00,48.9,48.4,30.13,NE,44,0.0,0.0,98,0.00,,,0.00,VWS V14.01,2013-10-15 10:45:00,
2013-10-15 06:50:00,49.1,48.6,30.14,NE,44,1.0,2.0,98,0.00,,,0.00,VWS V14.01,2013-10-15 10:50:00,
2013-10-15 06:55:00,49.1,48.6,30.14,NE,44,0.0,2.0,98,0.00,,,0.00,VWS V14.01,2013-10-15 10:55:00,
2013-10-15 07:00:00,48.9,48.4,30.13,NE,44,0.0,2.0,98,0.00,,,0.00,VWS V14.01,2013-10-15 11:00:00,
2013-10-15 07:05:00,48.9,48.4,30.14,NE,44,0.0,1.0,98,0.00,,,0.00,VWS V14.01,2013-10-15 11:05:00,
2013-10-15 07:10:00,48.9,48.4,30.13,NE,44,0.0,1.0,98,0.01,,,0.01,VWS V14.01,2013-10-15 11:10:00,
2013-10-15 07:15:00,49.1,48.6,30.14,NE,44,0.0,1.0,98,0.01,,,0.01,VWS V14.01,2013-10-15 11:15:00,
2013-10-15 07:20:00,49.2,48.7,30.14,NE,44,0.0,1.0,98,0.01,,,0.01,VWS V14.01,2013-10-15 11:20:00,
2013-10-15 07:25:00,49.2,48.7,30.14,NE,44,0.0,1.0,98,0.01,,,0.01,VWS V14.01,2013-10-15 11:25:00,
2013-10-15 07:30:00,49.2,48.7,30.14,NE,44,0.0,2.0,98,0.01,,,0.01,VWS V14.01,2013-10-15 11:30:00,
2013-10-15 07:35:00,49.2,48.7,30.14,NE,44,0.0,0.0,98,0.01,,,0.01,VWS V14.01,2013-10-15 11:35:00,
2013-10-15 07:40:00,49.2,48.7,30.14,NE,44,0.0,0.0,98,0.01,,,0.01,VWS V14.01,2013-10-15 11:40:00,
2013-10-15 07:45:00,49.2,48.7,30.14,NE,44,0.0,0.0,98,0.01,,,0.01,VWS V14.01,2013-10-15 11:45:00,
2013-10-15 07:50:00,49.4,48.9,30.15,NE,44,0.0,2.0,98,0.01,,,0.01,VWS V14.01,2013-10-15 11:50:00,
2013-10-15 07:55:00,49.4,48.9,30.14,NE,44,0.0,2.0,98,0.01,,,0.01,VWS V14.01,2013-10-15 11:55:00,
2013-10-15 08:00:00,49.5,49.0,30.14,NE,44,0.0,2.0,98,0.01,,,0.01,VWS V14.01,2013-10-15 12:00:00,
2013-10-15 08:05:00,49.6,49.1,30.14,NE,44,0.0,0.0,98,0.01,,,0.01,VWS V14.01,2013-10-15 12:05:00,
2013-10-15 08:10:00,49.9,49.4,30.14,NE,44,0.0,1.0,98,0.01,,,0.01,VWS V14.01,2013-10-15 12:10:00,
2013-10-15 08:15:00,50.4,49.9,30.15,NE,44,0.0,2.0,98,0.01,,,0.01,VWS V14.01,2013-10-15 12:15:00,
2013-10-15 08:20:00,50.8,50.3,30.15,NE,44,0.0,2.0,98,0.01,,,0.01,VWS V14.01,2013-10-15 12:20:00,
2013-10-15 08:25:00,51.1,50.6,30.15,NE,44,0.0,2.0,98,0.01,,,0.01,VWS V14.01,2013-10-15 12:25:00,
2013-10-15 08:30:00,51.4,50.9,30.15,NE,44,2.0,3.0,98,0.01,,,0.01,VWS V14.01,2013-10-15 12:30:00,
2013-10-15 08:35:00,51.7,51.2,30.15,NE,42,0.0,4.0,98,0.00,,,0.01,VWS V14.01,2013-10-15 12:35:00,
2013-10-15 08:40:00,52.0,51.5,30.15,NE,42,1.0,4.0,98,0.00,,,0.01,VWS V14.01,2013-10-15 12:40:00,
2013-10-15 08:45:00,52.5,52.0,30.15,NE,40,1.0,4.0,98,0.00,,,0.01,VWS V14.01,2013-10-15 12:45:00,
2013-10-15 08:50:00,52.9,52.3,30.15,NE,40,0.0,4.0,98,0.00,,,0.01,VWS V14.01,2013-10-15 12:50:00,
2013-10-15 08:55:00,53.3,52.8,30.15,NE,39,0.0,4.0,98,0.00,,,0.01,VWS V14.01,2013-10-15 12:55:00,
2013-10-15 09:00:00,53.6,53.0,30.15,NE,36,0.0,4.0,98,0.00,,,0.01,VWS V14.01,2013-10-15 13:00:00,
2013-10-15 09:05:00,54.1,53.5,30.16,NNE,29,0.0,3.0,98,0.00,,,0.01,VWS V14.01,2013-10-15 13:05:00,
2013-10-15 09:10:00,54.5,54.0,30.16,NNE,29,0.0,3.0,98,0.00,,,0.01,VWS V14.01,2013-10-15 13:10:00,
2013-10-15 09:15:00,55.1,54.5,30.16,NNE,29,0.0,3.0,98,0.00,,,0.01,VWS V14.01,2013-10-15 13:15:00,
2013-10-15 09:20:00,55.4,54.8,30.15,North,355,3.0,4.0,98,0.00,,,0.01,VWS V14.01,2013-10-15 13:20:00,
2013-10-15 09:25:00,55.6,55.0,30.16,NE,44,0.0,4.0,98,0.00,,,0.01,VWS V14.01,2013-10-15 13:25:00,
2013-10-15 09:30:00,56.0,55.5,30.16,NNW,348,0.0,5.0,98,0.00,,,0.01,VWS V14.01,2013-10-15 13:30:00,
2013-10-15 09:35:00,56.7,56.1,30.16,NNW,348,2.0,3.0,98,0.00,,,0.01,VWS V14.01,2013-10-15 13:35:00,
2013-10-15 09:40:00,56.9,56.1,30.16,North,355,0.0,3.0,97,0.00,,,0.01,VWS V14.01,2013-10-15 13:40:00,
2013-10-15 09:45:00,57.2,56.4,30.15,North,355,0.0,4.0,97,0.00,,,0.01,VWS V14.01,2013-10-15 13:45:00,
2013-10-15 09:50:00,57.8,57.0,30.15,North,360,2.0,4.0,97,0.00,,,0.01,VWS V14.01,2013-10-15 13:50:00,
2013-10-15 09:55:00,58.0,56.9,30.15,North,5,0.0,6.0,96,0.00,,,0.01,VWS V14.01,2013-10-15 13:55:00,
2013-10-15 10:00:00,58.4,57.0,30.15,North,10,0.0,6.0,95,0.00,,,0.01,VWS V14.01,2013-10-15 14:00:00,
2013-10-15 10:05:00,59.0,57.3,30.15,North,360,0.0,5.0,94,0.00,,,0.01,VWS V14.01,2013-10-15 14:05:00,
2013-10-15 10:10:00,59.3,57.0,30.15,North,5,0.0,6.0,92,0.00,,,0.01,VWS V14.01,2013-10-15 14:10:00,
2013-10-15 10:15:00,59.9,57.0,30.15,North,360,0.0,6.0,90,0.00,,,0.01,VWS V14.01,2013-10-15 14:15:00,
2013-10-15 10:20:00,60.4,56.8,30.15,NE,42,0.0,6.0,88,0.00,,,0.01,VWS V14.01,2013-10-15 14:20:00,
2013-10-15 10:25:00,60.9,56.4,30.15,North,5,0.0,6.0,85,0.00,,,0.01,VWS V14.01,2013-10-15 14:25:00,
2013-10-15 10:30:00,61.2,56.3,30.15,NNE,26,0.0,6.0,84,0.00,,,0.01,VWS V14.01,2013-10-15 14:30:00,
2013-10-15 10:35:00,61.8,56.6,30.15,NNE,13,2.0,5.0,83,0.00,,,0.01,VWS V14.01,2013-10-15 14:35:00,
2013-10-15 10:40:00,62.1,55.9,30.15,NNE,25,3.0,7.0,80,0.00,,,0.01,VWS V14.01,2013-10-15 14:40:00,
2013-10-15 10:45:00,62.7,56.5,30.14,North,9,2.0,7.0,80,0.00,,,0.01,VWS V14.01,2013-10-15 14:45:00,
2013-10-15 10:50:00,63.1,55.8,30.14,NE,36,0.0,7.0,77,0.00,,,0.01,VWS V14.01,2013-10-15 14:50:00,
2013-10-15 10:55:00,63.4,56.1,30.14,NE,36,4.0,7.0,77,0.00,,,0.01,VWS V14.01,2013-10-15 14:55:00,
2013-10-15 11:00:00,63.9,56.6,30.14,ESE,114,2.0,7.0,77,0.00,,,0.01,VWS V14.01,2013-10-15 15:00:00,
2013-10-15 11:05:00,64.5,57.1,30.14,ESE,122,2.0,3.0,77,0.00,,,0.01,VWS V14.01,2013-10-15 15:05:00,
2013-10-15 11:10:00,65.2,56.7,30.13,NE,42,3.0,5.0,74,0.00,,,0.01,VWS V14.01,2013-10-15 15:10:00,
2013-10-15 11:15:00,65.5,56.6,30.13,NNW,342,4.0,5.0,73,0.00,,,0.01,VWS V14.01,2013-10-15 15:15:00,
2013-10-15 11:19:00,65.8,56.9,30.12,North,5,4.0,5.0,73,0.00,,,0.01,VWS V14.01,2013-10-15 15:19:00,
2013-10-15 11:24:00,66.4,57.1,30.12,North,11,2.0,5.0,72,0.00,,,0.01,VWS V14.01,2013-10-15 15:24:00,
2013-10-15 11:29:00,66.8,57.1,30.12,South,188,2.0,5.0,71,0.00,,,0.01,VWS V14.01,2013-10-15 15:29:00,
2013-10-15 11:30:00,61.2,56.3,30.15,NNE,26,0.0,6.0,84,0.00,,,0.01,VWS V14.01,2013-10-15 15:30:00,
2013-10-15 11:34:00,66.6,56.5,30.12,ESE,117,2.0,7.0,70,0.00,,,0.01,VWS V14.01,2013-10-15 15:34:00,
2013-10-15 11:39:00,66.4,56.7,30.12,SSE,155,0.0,7.0,71,0.00,,,0.01,VWS V14.01,2013-10-15 15:39:00,
2013-10-15 11:44:00,67.1,57.8,30.12,North,11,3.0,8.0,72,0.00,,,0.01,VWS V14.01,2013-10-15 15:44:00,
2013-10-15 11:49:00,67.4,57.7,30.12,NNE,12,0.0,8.0,71,0.00,,,0.01,VWS V14.01,2013-10-15 15:49:00,
2013-10-15 11:54:00,67.6,56.7,30.11,NNE,26,3.0,8.0,68,0.00,,,0.01,VWS V14.01,2013-10-15 15:54:00,
2013-10-15 11:59:00,67.8,56.9,30.11,SE,136,3.0,8.0,68,0.00,,,0.01,VWS V14.01,2013-10-15 15:59:00,
2013-10-15 12:00:00,63.9,56.6,30.14,East,92,3.0,7.0,77,0.00,,,0.01,VWS V14.01,2013-10-15 16:00:00,
2013-10-15 12:04:00,67.9,56.5,30.11,North,5,0.0,5.0,67,0.00,,,0.01,VWS V14.01,2013-10-15 16:04:00,
2013-10-15 12:09:00,68.3,56.9,30.11,North,355,2.0,6.0,67,0.00,,,0.01,VWS V14.01,2013-10-15 16:09:00,
2013-10-15 12:14:00,68.6,57.2,30.11,North,360,0.0,6.0,67,0.00,,,0.01,VWS V14.01,2013-10-15 16:14:00,
2013-10-15 12:19:00,68.6,56.8,30.11,North,5,2.0,6.0,66,0.00,,,0.01,VWS V14.01,2013-10-15 16:19:00,
2013-10-15 12:24:00,68.4,56.6,30.11,SE,130,1.0,6.0,66,0.00,,,0.01,VWS V14.01,2013-10-15 16:24:00,
2013-10-15 12:29:00,68.8,56.6,30.10,ENE,61,2.0,6.0,65,0.00,,,0.01,VWS V14.01,2013-10-15 16:29:00,
2013-10-15 12:30:00,66.8,57.1,30.12,South,188,0.0,5.0,71,0.00,,,0.01,VWS V14.01,2013-10-15 16:30:00,
2013-10-15 12:34:00,68.9,56.7,30.11,SE,146,0.0,5.0,65,0.00,,,0.01,VWS V14.01,2013-10-15 16:34:00,
2013-10-15 12:39:00,69.4,57.1,30.10,East,84,0.0,5.0,65,0.00,,,0.01,VWS V14.01,2013-10-15 16:39:00,
2013-10-15 12:44:00,70.1,57.4,30.10,SSE,150,0.0,5.0,64,0.00,,,0.01,VWS V14.01,2013-10-15 16:44:00,
2013-10-15 12:49:00,70.8,57.6,30.10,SE,139,1.0,5.0,63,0.00,,,0.01,VWS V14.01,2013-10-15 16:49:00,
2013-10-15 12:54:00,70.4,56.3,30.10,ENE,57,0.0,5.0,61,0.00,,,0.01,VWS V14.01,2013-10-15 16:54:00,
2013-10-15 12:59:00,70.6,57.8,30.10,NE,53,0.0,5.0,64,0.00,,,0.01,VWS V14.01,2013-10-15 16:59:00,
2013-10-15 13:00:00,67.8,56.9,30.11,NE,49,1.0,8.0,68,0.00,,,0.01,VWS V14.01,2013-10-15 17:00:00,
2013-10-15 13:04:00,70.4,57.2,30.10,NNE,22,2.0,6.0,63,0.00,,,0.01,VWS V14.01,2013-10-15 17:04:00,
2013-10-15 13:09:00,70.6,57.0,30.10,ENE,65,0.0,6.0,62,0.00,,,0.01,VWS V14.01,2013-10-15 17:09:00,
2013-10-15 13:14:00,70.4,56.3,30.10,North,11,0.0,6.0,61,0.00,,,0.01,VWS V14.01,2013-10-15 17:14:00,
2013-10-15 13:19:00,70.8,56.7,30.09,NE,34,3.0,6.0,61,0.00,,,0.01,VWS V14.01,2013-10-15 17:19:00,
2013-10-15 13:24:00,71.1,57.4,30.09,NE,34,0.0,6.0,62,0.00,,,0.01,VWS V14.01,2013-10-15 17:24:00,
2013-10-15 13:29:00,71.1,57.4,30.09,NW,315,2.0,6.0,62,0.00,,,0.01,VWS V14.01,2013-10-15 17:29:00,
2013-10-15 13:30:00,68.8,57.0,30.10,ENE,62,0.0,6.0,66,0.00,,,0.01,VWS V14.01,2013-10-15 17:30:00,
2013-10-15 13:34:00,70.9,57.2,30.09,NNW,332,0.0,3.0,62,0.00,,,0.01,VWS V14.01,2013-10-15 17:34:00,
2013-10-15 13:39:00,71.1,57.0,30.08,East,83,0.0,6.0,61,0.00,,,0.01,VWS V14.01,2013-10-15 17:39:00,
2013-10-15 13:44:00,71.1,57.4,30.08,NNE,16,2.0,6.0,62,0.00,,,0.01,VWS V14.01,2013-10-15 17:44:00,
2013-10-15 13:49:00,70.9,56.8,30.08,North,11,2.0,6.0,61,0.00,,,0.01,VWS V14.01,2013-10-15 17:49:00,
2013-10-15 13:54:00,71.1,57.0,30.08,SE,142,3.0,6.0,61,0.00,,,0.01,VWS V14.01,2013-10-15 17:54:00,
2013-10-15 13:59:00,71.5,56.9,30.07,NNE,20,3.0,6.0,60,0.00,,,0.01,VWS V14.01,2013-10-15 17:59:00,
2013-10-15 14:00:00,70.4,56.8,30.10,NE,53,0.0,5.0,62,0.00,,,0.01,VWS V14.01,2013-10-15 18:00:00,
2013-10-15 14:04:00,71.5,56.9,30.07,NNE,26,0.0,2.0,60,0.00,,,0.01,VWS V14.01,2013-10-15 18:04:00,
2013-10-15 14:09:00,71.3,56.7,30.07,SE,126,0.0,3.0,60,0.00,,,0.01,VWS V14.01,2013-10-15 18:09:00,
2013-10-15 14:14:00,71.5,56.4,30.07,East,80,3.0,5.0,59,0.00,,,0.01,VWS V14.01,2013-10-15 18:14:00,
2013-10-15 14:19:00,71.5,57.4,30.06,SE,126,0.0,5.0,61,0.00,,,0.01,VWS V14.01,2013-10-15 18:19:00,
2013-10-15 14:24:00,71.1,56.5,30.06,SSE,161,0.0,5.0,60,0.00,,,0.01,VWS V14.01,2013-10-15 18:24:00,
2013-10-15 14:29:00,71.1,56.5,30.06,SSE,157,2.0,5.0,60,0.00,,,0.01,VWS V14.01,2013-10-15 18:29:00,
2013-10-15 14:30:00,70.9,57.2,30.09,NW,315,3.0,6.0,62,0.00,,,0.01,VWS V14.01,2013-10-15 18:30:00,
2013-10-15 14:34:00,71.3,57.2,30.06,SE,125,0.0,0.0,61,0.00,,,0.01,VWS V14.01,2013-10-15 18:34:00,
2013-10-15 14:39:00,71.1,57.4,30.06,SSE,150,0.0,3.0,62,0.00,,,0.01,VWS V14.01,2013-10-15 18:39:00,
2013-10-15 14:44:00,71.5,57.4,30.06,North,5,3.0,5.0,61,0.00,,,0.01,VWS V14.01,2013-10-15 18:44:00,
2013-10-15 14:49:00,71.6,57.5,30.06,SSE,159,3.0,6.0,61,0.00,,,0.01,VWS V14.01,2013-10-15 18:49:00,
2013-10-15 14:54:00,71.6,57.5,30.05,NW,323,0.0,6.0,61,0.00,,,0.01,VWS V14.01,2013-10-15 18:54:00,
2013-10-15 14:59:00,72.0,57.4,30.05,NW,324,0.0,6.0,60,0.00,,,0.01,VWS V14.01,2013-10-15 18:59:00,
2013-10-15 15:00:00,71.5,56.9,30.07,NNE,26,1.0,6.0,60,0.00,,,0.01,VWS V14.01,2013-10-15 19:00:00,
2013-10-15 15:04:00,72.3,57.7,30.05,NNW,331,1.0,4.0,60,0.00,,,0.01,VWS V14.01,2013-10-15 19:04:00,
2013-10-15 15:09:00,72.8,57.7,30.05,SSE,150,2.0,5.0,59,0.00,,,0.01,VWS V14.01,2013-10-15 19:09:00,
2013-10-15 15:14:00,73.2,57.1,30.04,SE,146,5.0,6.0,57,0.00,,,0.01,VWS V14.01,2013-10-15 19:14:00,
2013-10-15 15:19:00,72.7,58.0,30.04,ENE,65,0.0,6.0,60,0.00,,,0.01,VWS V14.01,2013-10-15 19:19:00,
2013-10-15 15:24:00,72.1,57.5,30.04,SE,130,0.0,6.0,60,0.00,,,0.01,VWS V14.01,2013-10-15 19:24:00,
2013-10-15 15:29:00,71.6,57.9,30.05,SSE,157,0.0,6.0,62,0.00,,,0.01,VWS V14.01,2013-10-15 19:29:00,
2013-10-15 15:30:00,71.1,56.5,30.06,SSE,157,0.0,5.0,60,0.00,,,0.01,VWS V14.01,2013-10-15 19:30:00,
2013-10-15 15:34:00,71.3,58.1,30.05,SSE,160,0.0,4.0,63,0.00,,,0.01,VWS V14.01,2013-10-15 19:34:00,
2013-10-15 15:39:00,71.1,57.9,30.05,SSE,160,1.0,4.0,63,0.00,,,0.01,VWS V14.01,2013-10-15 19:39:00,
2013-10-15 15:44:00,70.6,57.8,30.04,SSE,160,0.0,4.0,64,0.00,,,0.01,VWS V14.01,2013-10-15 19:44:00,
2013-10-15 15:49:00,70.4,58.1,30.04,SSE,160,0.0,4.0,65,0.00,,,0.01,VWS V14.01,2013-10-15 19:49:00,
2013-10-15 15:54:00,70.1,57.4,30.05,SSE,160,0.0,4.0,64,0.00,,,0.01,VWS V14.01,2013-10-15 19:54:00,
2013-10-15 15:59:00,69.9,57.6,30.05,SSE,160,0.0,4.0,65,0.00,,,0.01,VWS V14.01,2013-10-15 19:59:00,
2013-10-15 16:00:00,72.0,58.3,30.05,NNW,327,0.0,6.0,62,0.00,,,0.01,VWS V14.01,2013-10-15 20:00:00,
2013-10-15 16:04:00,69.9,58.0,30.05,SSE,160,0.0,0.0,66,0.00,,,0.01,VWS V14.01,2013-10-15 20:04:00,
2013-10-15 16:09:00,69.8,57.9,30.05,SSE,160,0.0,1.0,66,0.00,,,0.01,VWS V14.01,2013-10-15 20:09:00,
2013-10-15 16:14:00,69.4,58.4,30.05,SSE,160,0.0,1.0,68,0.00,,,0.01,VWS V14.01,2013-10-15 20:14:00,
2013-10-15 16:19:00,69.3,58.3,30.05,SSE,159,0.0,1.0,68,0.00,,,0.01,VWS V14.01,2013-10-15 20:19:00,
2013-10-15 16:24:00,69.1,58.9,30.05,SSE,159,0.0,1.0,70,0.00,,,0.01,VWS V14.01,2013-10-15 20:24:00,
2013-10-15 16:29:00,68.6,58.8,30.05,SSE,159,0.0,1.0,71,0.00,,,0.01,VWS V14.01,2013-10-15 20:29:00,
2013-10-15 16:30:00,71.5,56.9,30.05,SSE,163,4.0,6.0,60,0.00,,,0.01,VWS V14.01,2013-10-15 20:30:00,
2013-10-15 16:34:00,68.3,58.9,30.05,SSE,159,0.0,0.0,72,0.00,,,0.01,VWS V14.01,2013-10-15 20:34:00,
2013-10-15 16:39:00,68.1,59.5,30.05,SSE,159,0.0,0.0,74,0.00,,,0.01,VWS V14.01,2013-10-15 20:39:00,
2013-10-15 16:44:00,67.8,59.2,30.06,SSE,159,0.0,0.0,74,0.00,,,0.01,VWS V14.01,2013-10-15 20:44:00,
2013-10-15 16:49:00,67.4,59.6,30.06,SSE,159,0.0,0.0,76,0.00,,,0.01,VWS V14.01,2013-10-15 20:49:00,
2013-10-15 16:54:00,66.9,58.7,30.06,SSE,158,3.0,4.0,75,0.00,,,0.01,VWS V14.01,2013-10-15 20:54:00,
2013-10-15 16:59:00,66.9,57.6,30.06,SSE,158,0.0,4.0,72,0.00,,,0.01,VWS V14.01,2013-10-15 20:59:00,
2013-10-15 17:00:00,69.9,57.6,30.05,SSE,160,0.0,4.0,65,0.00,,,0.01,VWS V14.01,2013-10-15 21:00:00,
2013-10-15 17:04:00,66.9,57.6,30.06,SSE,158,0.0,1.0,72,0.00,,,0.01,VWS V14.01,2013-10-15 21:04:00,
2013-10-15 17:09:00,66.8,58.3,30.06,SSE,158,0.0,1.0,74,0.00,,,0.01,VWS V14.01,2013-10-15 21:09:00,
2013-10-15 17:14:00,66.4,58.6,30.06,SSE,158,0.0,1.0,76,0.00,,,0.01,VWS V14.01,2013-10-15 21:14:00,
2013-10-15 17:19:00,66.1,58.3,30.06,ESE,121,2.0,9.0,76,0.00,,,0.01,VWS V14.01,2013-10-15 21:19:00,
2013-10-15 17:24:00,65.6,58.6,30.06,SSE,160,3.0,9.0,78,0.00,,,0.01,VWS V14.01,2013-10-15 21:24:00,
2013-10-15 17:29:00,64.7,58.7,30.06,ESE,123,0.0,9.0,81,0.00,,,0.01,VWS V14.01,2013-10-15 21:29:00,
2013-10-15 17:30:00,68.6,58.8,30.05,SSE,159,0.0,1.0,71,0.00,,,0.01,VWS V14.01,2013-10-15 21:30:00,
2013-10-15 17:34:00,64.0,59.1,30.06,SE,141,1.0,3.0,84,0.00,,,0.01,VWS V14.01,2013-10-15 21:34:00,
2013-10-15 17:39:00,63.7,59.4,30.05,SSE,165,3.0,5.0,86,0.00,,,0.01,VWS V14.01,2013-10-15 21:39:00,
2013-10-15 17:44:00,63.4,59.5,30.05,ESE,116,0.0,5.0,87,0.00,,,0.01,VWS V14.01,2013-10-15 21:44:00,
2013-10-15 17:49:00,63.2,59.6,30.05,SE,128,0.0,5.0,88,0.00,,,0.01,VWS V14.01,2013-10-15 21:49:00,
2013-10-15 17:54:00,63.1,59.5,30.05,SSE,161,1.0,5.0,88,0.00,,,0.01,VWS V14.01,2013-10-15 21:54:00,
2013-10-15 17:59:00,63.1,59.5,30.05,SSE,167,0.0,5.0,88,0.00,,,0.01,VWS V14.01,2013-10-15 21:59:00,
2013-10-15 18:00:00,66.9,57.6,30.06,SSE,158,0.0,4.0,72,0.00,,,0.01,VWS V14.01,2013-10-15 22:00:00,
2013-10-15 18:04:00,62.9,59.6,30.05,SSE,150,3.0,5.0,89,0.00,,,0.01,VWS V14.01,2013-10-15 22:04:00,
2013-10-15 18:09:00,62.9,59.6,30.06,SSE,150,0.0,5.0,89,0.00,,,0.01,VWS V14.01,2013-10-15 22:09:00,
2013-10-15 18:14:00,62.9,59.9,30.05,SSE,150,0.0,5.0,90,0.00,,,0.01,VWS V14.01,2013-10-15 22:14:00,
2013-10-15 18:19:00,62.9,59.9,30.05,SSE,150,2.0,5.0,90,0.00,,,0.01,VWS V14.01,2013-10-15 22:19:00,
2013-10-15 18:24:00,62.9,59.9,30.05,SSE,150,0.0,5.0,90,0.00,,,0.01,VWS V14.01,2013-10-15 22:24:00,
2013-10-15 18:29:00,62.9,59.9,30.06,SSE,150,0.0,5.0,90,0.00,,,0.01,VWS V14.01,2013-10-15 22:29:00,
2013-10-15 18:30:00,64.5,58.9,30.06,SE,146,3.0,9.0,82,0.00,,,0.01,VWS V14.01,2013-10-15 22:30:00,
2013-10-15 18:34:00,62.9,59.6,30.06,SSE,150,0.0,0.0,89,0.00,,,0.01,VWS V14.01,2013-10-15 22:34:00,
2013-10-15 18:39:00,62.9,59.6,30.06,SSE,150,0.0,0.0,89,0.00,,,0.01,VWS V14.01,2013-10-15 22:39:00,
2013-10-15 18:44:00,62.9,59.3,30.06,SSE,147,0.0,3.0,88,0.00,,,0.01,VWS V14.01,2013-10-15 22:44:00,
2013-10-15 18:49:00,63.1,58.5,30.06,SSE,152,2.0,4.0,85,0.00,,,0.01,VWS V14.01,2013-10-15 22:49:00,
2013-10-15 18:54:00,63.1,58.2,30.06,SSE,147,0.0,6.0,84,0.00,,,0.01,VWS V14.01,2013-10-15 22:54:00,
2013-10-15 18:59:00,63.2,58.3,30.06,SSE,148,2.0,6.0,84,0.00,,,0.01,VWS V14.01,2013-10-15 22:59:00,
2013-10-15 19:00:00,63.1,59.8,30.05,SSE,167,0.0,5.0,89,0.00,,,0.01,VWS V14.01,2013-10-15 23:00:00,
2013-10-15 19:04:00,63.1,58.2,30.06,SSE,152,1.0,4.0,84,0.00,,,0.01,VWS V14.01,2013-10-15 23:04:00,
2013-10-15 19:09:00,63.1,58.2,30.06,SSE,153,0.0,4.0,84,0.00,,,0.01,VWS V14.01,2013-10-15 23:09:00,
2013-10-15 19:14:00,63.1,58.2,30.06,SSE,148,0.0,6.0,84,0.00,,,0.01,VWS V14.01,2013-10-15 23:14:00,
2013-10-15 19:19:00,62.9,58.0,30.06,SSE,148,0.0,6.0,84,0.00,,,0.01,VWS V14.01,2013-10-15 23:19:00,
2013-10-15 19:24:00,62.9,57.7,30.06,SSE,152,0.0,6.0,83,0.00,,,0.01,VWS V14.01,2013-10-15 23:24:00,
2013-10-15 19:29:00,62.9,58.0,30.05,SSE,152,1.0,6.0,84,0.00,,,0.01,VWS V14.01,2013-10-15 23:29:00,
2013-10-15 19:30:00,62.9,59.9,30.06,SSE,150,0.0,5.0,90,0.00,,,0.01,VWS V14.01,2013-10-15 23:30:00,
2013-10-15 19:34:00,62.9,57.7,30.05,SSE,152,0.0,3.0,83,0.00,,,0.01,VWS V14.01,2013-10-15 23:34:00,
2013-10-15 19:39:00,62.7,57.5,30.06,SSE,152,0.0,3.0,83,0.00,,,0.01,VWS V14.01,2013-10-15 23:39:00,
2013-10-15 19:44:00,62.7,57.5,30.06,SSE,152,0.0,3.0,83,0.00,,,0.01,VWS V14.01,2013-10-15 23:44:00,
2013-10-15 19:49:00,62.6,57.7,30.05,SSE,152,0.0,3.0,84,0.00,,,0.01,VWS V14.01,2013-10-15 23:49:00,
2013-10-15 19:54:00,62.4,57.5,30.05,SSE,152,0.0,3.0,84,0.00,,,0.01,VWS V14.01,2013-10-15 23:54:00,
2013-10-15 19:59:00,62.3,57.7,30.05,SSE,152,0.0,3.0,85,0.00,,,0.01,VWS V14.01,2013-10-15 23:59:00,
2013-10-15 20:00:00,63.2,58.3,30.06,SSE,148,0.0,6.0,84,0.00,,,0.01,VWS V14.01,2013-10-16 00:00:00,
2013-10-15 20:04:00,62.1,57.5,30.05,SSE,152,0.0,0.0,85,0.00,,,0.01,VWS V14.01,2013-10-16 00:04:00,
2013-10-15 20:09:00,62.1,57.5,30.05,SSE,152,0.0,0.0,85,0.00,,,0.01,VWS V14.01,2013-10-16 00:09:00,
2013-10-15 20:14:00,62.0,57.8,30.05,SSE,152,0.0,0.0,86,0.00,,,0.01,VWS V14.01,2013-10-16 00:14:00,
2013-10-15 20:19:00,61.8,57.6,30.05,SSE,152,0.0,0.0,86,0.00,,,0.01,VWS V14.01,2013-10-16 00:19:00,
2013-10-15 20:24:00,61.6,57.4,30.05,SSE,152,0.0,0.0,86,0.00,,,0.01,VWS V14.01,2013-10-16 00:24:00,
2013-10-15 20:29:00,61.8,57.2,30.05,SSE,155,0.0,3.0,85,0.00,,,0.01,VWS V14.01,2013-10-16 00:29:00,
2013-10-15 20:30:00,62.9,58.0,30.05,SSE,152,0.0,6.0,84,0.00,,,0.01,VWS V14.01,2013-10-16 00:30:00,
2013-10-15 20:34:00,61.8,57.2,30.05,SSE,154,0.0,2.0,85,0.00,,,0.01,VWS V14.01,2013-10-16 00:34:00,
2013-10-15 20:39:00,61.8,56.9,30.05,SSE,154,0.0,2.0,84,0.00,,,0.01,VWS V14.01,2013-10-16 00:39:00,
2013-10-15 20:44:00,61.8,56.9,30.05,SSE,154,0.0,2.0,84,0.00,,,0.01,VWS V14.01,2013-10-16 00:44:00,
2013-10-15 20:49:00,61.6,56.7,30.05,SSE,154,0.0,2.0,84,0.00,,,0.01,VWS V14.01,2013-10-16 00:49:00,
2013-10-15 20:54:00,61.6,56.7,30.06,SSE,154,0.0,2.0,84,0.00,,,0.01,VWS V14.01,2013-10-16 00:54:00,
2013-10-15 20:59:00,61.6,56.7,30.06,SSE,154,0.0,2.0,84,0.00,,,0.01,VWS V14.01,2013-10-16 00:59:00,
2013-10-15 21:00:00,62.3,57.7,30.05,SSE,152,0.0,3.0,85,0.00,,,0.01,VWS V14.01,2013-10-16 01:00:00,
2013-10-15 21:04:00,61.6,56.7,30.06,SSE,154,0.0,0.0,84,0.00,,,0.01,VWS V14.01,2013-10-16 01:04:00,
2013-10-15 21:09:00,61.6,56.7,30.06,SSE,154,0.0,0.0,84,0.00,,,0.01,VWS V14.01,2013-10-16 01:09:00,
2013-10-15 21:14:00,61.6,56.7,30.05,SSE,154,0.0,0.0,84,0.00,,,0.01,VWS V14.01,2013-10-16 01:14:00,
2013-10-15 21:19:00,61.5,57.0,30.05,SSE,154,0.0,0.0,85,0.00,,,0.01,VWS V14.01,2013-10-16 01:19:00,
2013-10-15 21:24:00,61.5,57.0,30.05,SSE,154,0.0,0.0,85,0.00,,,0.01,VWS V14.01,2013-10-16 01:24:00,
2013-10-15 21:29:00,61.3,56.8,30.05,SSE,154,0.0,0.0,85,0.00,,,0.01,VWS V14.01,2013-10-16 01:29:00,
2013-10-15 21:30:00,61.8,57.2,30.05,SSE,154,0.0,3.0,85,0.00,,,0.01,VWS V14.01,2013-10-16 01:30:00,
2013-10-15 21:34:00,61.3,56.8,30.05,SSE,154,0.0,0.0,85,0.00,,,0.01,VWS V14.01,2013-10-16 01:34:00,
2013-10-15 21:39:00,61.3,56.8,30.05,SSE,154,0.0,0.0,85,0.00,,,0.01,VWS V14.01,2013-10-16 01:39:00,
2013-10-15 21:44:00,61.3,56.8,30.05,SSE,154,0.0,0.0,85,0.00,,,0.01,VWS V14.01,2013-10-16 01:44:00,
2013-10-15 21:49:00,61.3,57.1,30.05,SSE,154,0.0,0.0,86,0.00,,,0.01,VWS V14.01,2013-10-16 01:49:00,
2013-10-15 21:54:00,61.2,56.7,30.06,SSE,154,0.0,0.0,85,0.00,,,0.01,VWS V14.01,2013-10-16 01:54:00,
2013-10-15 21:59:00,61.2,56.7,30.06,SSE,154,0.0,0.0,85,0.00,,,0.01,VWS V14.01,2013-10-16 01:59:00,
2013-10-15 22:00:00,61.6,56.7,30.06,SSE,154,0.0,2.0,84,0.00,,,0.01,VWS V14.01,2013-10-16 02:00:00,
2013-10-15 22:04:00,61.2,56.7,30.05,SSE,154,0.0,0.0,85,0.00,,,0.01,VWS V14.01,2013-10-16 02:04:00,
2013-10-15 22:09:00,61.2,57.0,30.05,SSE,154,0.0,0.0,86,0.00,,,0.01,VWS V14.01,2013-10-16 02:09:00,
2013-10-15 22:14:00,61.2,56.7,30.06,SSE,154,0.0,0.0,85,0.00,,,0.01,VWS V14.01,2013-10-16 02:14:00,
2013-10-15 22:19:00,61.2,57.0,30.06,SSE,154,0.0,0.0,86,0.00,,,0.01,VWS V14.01,2013-10-16 02:19:00,
2013-10-15 22:24:00,61.0,56.8,30.05,SSE,154,0.0,0.0,86,0.00,,,0.01,VWS V14.01,2013-10-16 02:24:00,
2013-10-15 22:29:00,60.9,56.7,30.05,SSE,154,0.0,0.0,86,0.00,,,0.01,VWS V14.01,2013-10-16 02:29:00,
2013-10-15 22:30:00,61.3,56.8,30.05,SSE,154,0.0,0.0,85,0.00,,,0.01,VWS V14.01,2013-10-16 02:30:00,
2013-10-15 22:34:00,61.0,57.1,30.05,SSE,154,0.0,0.0,87,0.00,,,0.01,VWS V14.01,2013-10-16 02:34:00,
2013-10-15 22:39:00,60.9,57.0,30.05,SSE,154,0.0,0.0,87,0.00,,,0.01,VWS V14.01,2013-10-16 02:39:00,
2013-10-15 22:44:00,60.9,57.3,30.05,SSE,154,0.0,0.0,88,0.00,,,0.01,VWS V14.01,2013-10-16 02:44:00,
2013-10-15 22:49:00,60.7,57.1,30.05,SSE,154,0.0,0.0,88,0.00,,,0.01,VWS V14.01,2013-10-16 02:49:00,
2013-10-15 22:54:00,60.7,56.8,30.04,SSE,154,0.0,0.0,87,0.00,,,0.01,VWS V14.01,2013-10-16 02:54:00,
2013-10-15 22:59:00,60.7,56.8,30.04,SSE,154,0.0,0.0,87,0.00,,,0.01,VWS V14.01,2013-10-16 02:59:00,
2013-10-15 23:00:00,61.2,56.7,30.05,SSE,154,0.0,0.0,85,0.00,,,0.01,VWS V14.01,2013-10-16 03:00:00,
2013-10-15 23:04:00,60.7,56.8,30.04,SSE,154,0.0,0.0,87,0.00,,,0.01,VWS V14.01,2013-10-16 03:04:00,
2013-10-15 23:09:00,60.7,56.8,30.03,SSE,154,0.0,0.0,87,0.00,,,0.01,VWS V14.01,2013-10-16 03:09:00,
2013-10-15 23:14:00,60.7,56.8,30.03,SSE,154,0.0,0.0,87,0.00,,,0.01,VWS V14.01,2013-10-16 03:14:00,
2013-10-15 23:19:00,60.7,56.8,30.03,SSE,154,0.0,0.0,87,0.00,,,0.01,VWS V14.01,2013-10-16 03:19:00,
2013-10-15 23:24:00,60.7,56.8,30.03,SSE,154,0.0,0.0,87,0.00,,,0.01,VWS V14.01,2013-10-16 03:24:00,
2013-10-15 23:29:00,60.7,56.8,30.02,SSE,154,0.0,0.0,87,0.00,,,0.01,VWS V14.01,2013-10-16 03:29:00,
2013-10-15 23:30:00,61.0,56.8,30.05,SSE,154,0.0,0.0,86,0.00,,,0.01,VWS V14.01,2013-10-16 03:30:00,
2013-10-15 23:34:00,60.5,56.6,30.02,SSE,154,0.0,0.0,87,0.00,,,0.01,VWS V14.01,2013-10-16 03:34:00,
2013-10-15 23:39:00,60.5,56.6,30.02,SSE,154,0.0,0.0,87,0.00,,,0.01,VWS V14.01,2013-10-16 03:39:00,
2013-10-15 23:44:00,60.5,56.6,30.02,SSE,154,0.0,0.0,87,0.00,,,0.01,VWS V14.01,2013-10-16 03:44:00,
2013-10-15 23:49:00,60.5,56.6,30.02,SSE,154,0.0,0.0,87,0.00,,,0.01,VWS V14.01,2013-10-16 03:49:00,
2013-10-15 23:54:00,60.5,56.6,30.02,SSE,154,0.0,0.0,87,0.00,,,0.01,VWS V14.01,2013-10-16 03:54:00,
2013-10-15 23:59:00,60.5,56.6,30.02,SSE,154,0.0,0.0,87,0.00,,,0.01,VWS V14.01,2013-10-16 03:59:00,